Time;durP1;ratioP1;P1;durP2;ratioP2;P2;SDS_P1;SDS_P2;PMS_P1;PMS_P2;Temp;Humidity;BMP_temperature;BMP_pressure;BME280_temperature;BME280_humidity;BME280_pressure;Samples;Min_cycle;Max_cycle;Signal;HPM_P1;HPM_P2
2022/06/08 00:01:29;;;;;;;;;;;12.00;99.90;;;;;;5000216;28;19933;-77
2022/06/08 00:03:56;;;;;;;;;;;12.00;99.90;;;;;;5016356;28;19933;-77
2022/06/08 00:06:21;;;;;;;;;;;11.90;99.90;;;;;;5002677;28;19929;-77
2022/06/08 00:08:47;;;;;;;;;;;11.80;99.90;;;;;;5016673;28;19964;-77
2022/06/08 00:11:13;;;;;;;;;;;11.80;99.90;;;;;;5017021;28;20048;-77
2022/06/08 00:13:39;;;;;;;;;;;11.90;99.90;;;;;;5015462;28;19939;-77
2022/06/08 00:16:06;;;;;;;;;;;11.90;99.90;;;;;;5013108;28;20011;-77
2022/06/08 00:18:31;;;;;;;;;;;12.00;99.90;;;;;;4995263;28;19933;-77
2022/06/08 00:20:57;;;;;;;;;;;11.90;99.90;;;;;;4997993;28;19966;-77
2022/06/08 00:23:23;;;;;;;;;;;11.90;99.90;;;;;;5007541;28;19928;-77
2022/06/08 00:25:48;;;;;;;;;;;12.00;99.90;;;;;;5022638;28;19989;-77
2022/06/08 00:28:14;;;;;;;;;;;12.00;99.90;;;;;;4971041;28;19929;-77
2022/06/08 00:30:40;;;;;;;;;;;12.00;99.90;;;;;;5011309;28;20031;-77
2022/06/08 00:33:06;;;;;;;;;;;12.10;99.90;;;;;;4999871;28;19936;-77
2022/06/08 00:35:31;;;;;;;;;;;12.00;99.90;;;;;;4998142;28;19972;-77
2022/06/08 00:37:57;;;;;;;;;;;12.10;99.90;;;;;;4998995;28;19936;-77
2022/06/08 00:40:28;;;;;;;;;;;12.10;99.90;;;;;;5017634;28;20024;-77
2022/06/08 00:42:53;;;;;;;;;;;12.30;99.90;;;;;;5017658;28;19964;-77
2022/06/08 00:45:20;;;;;;;;;;;12.30;99.90;;;;;;5019108;28;19929;-77
2022/06/08 00:47:48;;;;;;;;;;;12.10;99.90;;;;;;5016811;28;20468;-77
2022/06/08 00:50:18;;;;;;;;;;;12.10;99.90;;;;;;5017806;28;20402;-77
2022/06/08 00:52:44;;;;;;;;;;;12.10;99.90;;;;;;5017614;28;20446;-77
2022/06/08 00:55:12;;;;;;;;;;;12.20;99.90;;;;;;5018633;28;19951;-77
2022/06/08 00:57:43;;;;;;;;;;;12.20;99.90;;;;;;4999120;28;20378;-77
2022/06/08 01:00:14;;;;;;;;;;;12.20;99.90;;;;;;5018973;28;19975;-77
2022/06/08 01:02:40;;;;;;;;;;;12.20;99.90;;;;;;5016881;28;20390;-77
2022/06/08 01:05:16;;;;;;;;;;;12.30;99.90;;;;;;5016326;28;19929;-77
2022/06/08 01:07:42;;;;;;;;;;;12.60;99.90;;;;;;4996293;28;19929;-77
2022/06/08 01:10:15;;;;;;;;;;;12.50;99.90;;;;;;5016336;28;20373;-77
2022/06/08 01:12:42;;;;;;;;;;;12.70;99.90;;;;;;5015719;28;19928;-77
2022/06/08 01:15:09;;;;;;;;;;;12.70;99.90;;;;;;4997969;28;19929;-77
2022/06/08 01:17:35;;;;;;;;;;;12.60;99.90;;;;;;4997473;28;19933;-77
2022/06/08 01:20:00;;;;;;;;;;;12.60;99.90;;;;;;5016923;28;19958;-77
2022/06/08 01:22:26;;;;;;;;;;;12.70;99.90;;;;;;4998758;28;20409;-77
2022/06/08 01:24:52;;;;;;;;;;;12.60;99.90;;;;;;5016194;28;19940;-78
2022/06/08 01:27:50;;;;;;;;;;;12.70;99.90;;;;;;5015001;28;20019;-77
2022/06/08 01:30:29;;;;;;;;;;;12.80;99.90;;;;;;4982531;28;19929;-77
2022/06/08 01:33:13;;;;;;;;;;;12.80;99.90;;;;;;5017775;28;19979;-77
2022/06/08 01:35:39;;;;;;;;;;;12.70;99.90;;;;;;5014276;28;19939;-77
2022/06/08 01:38:08;;;;;;;;;;;12.80;99.90;;;;;;4993359;28;19958;-77
2022/06/08 01:40:34;;;;;;;;;;;12.70;99.90;;;;;;5010715;28;20417;-77
2022/06/08 01:43:05;;;;;;;;;;;12.70;99.90;;;;;;5012390;28;20055;-78
2022/06/08 01:45:51;;;;;;;;;;;12.80;99.90;;;;;;4995407;28;19942;-77
2022/06/08 01:48:16;;;;;;;;;;;12.70;99.90;;;;;;5011991;28;19933;-77
2022/06/08 01:50:48;;;;;;;;;;;12.70;99.90;;;;;;5007880;28;20517;-77
2022/06/08 01:53:32;;;;;;;;;;;12.70;99.90;;;;;;5014544;28;20655;-77
2022/06/08 01:56:00;;;;;;;;;;;12.70;99.90;;;;;;5010431;28;19971;-78
2022/06/08 01:58:35;;;;;;;;;;;12.80;99.90;;;;;;5011836;28;20030;-77
2022/06/08 02:01:19;;;;;;;;;;;12.90;99.90;;;;;;4995409;28;20389;-77
2022/06/08 02:03:50;;;;;;;;;;;12.80;99.90;;;;;;5012489;28;19979;-77
2022/06/08 02:06:23;;;;;;;;;;;13.00;99.90;;;;;;5013909;28;19929;-77
2022/06/08 02:08:56;;;;;;;;;;;12.90;99.90;;;;;;4996263;28;19928;-78
2022/06/08 02:11:42;;;;;;;;;;;12.90;99.90;;;;;;5013222;28;19929;-77
2022/06/08 02:14:12;;;;;;;;;;;12.90;99.90;;;;;;5017219;28;19939;-78
2022/06/08 02:16:37;;;;;;;;;;;12.80;99.90;;;;;;4997923;28;19936;-77
2022/06/08 02:19:25;;;;;;;;;;;12.90;99.90;;;;;;5017476;28;19929;-77
2022/06/08 02:21:57;;;;;;;;;;;12.80;99.90;;;;;;5003441;28;19941;-77
2022/06/08 02:24:26;;;;;;;;;;;12.80;99.90;;;;;;5010708;28;19928;-78
2022/06/08 02:27:00;;;;;;;;;;;12.80;99.90;;;;;;4981922;28;19933;-77
2022/06/08 02:29:37;;;;;;;;;;;12.70;99.90;;;;;;4997657;28;19931;-78
2022/06/08 02:35:01;;;;;;;;;;;12.70;99.90;;;;;;5013175;28;20047;-77
2022/06/08 02:37:29;;;;;;;;;;;12.80;99.90;;;;;;5012173;28;20047;-78
2022/06/08 02:40:01;;;;;;;;;;;12.90;99.90;;;;;;4992226;28;19935;-78
2022/06/08 02:42:30;;;;;;;;;;;12.80;99.90;;;;;;5009604;28;20357;-77
2022/06/08 02:45:02;;;;;;;;;;;12.90;99.90;;;;;;5008461;28;19940;-77
2022/06/08 02:47:30;;;;;;;;;;;12.90;99.90;;;;;;5010861;28;20022;-77
2022/06/08 02:50:25;;;;;;;;;;;12.90;99.90;;;;;;5000343;28;19929;-77
2022/06/08 02:52:52;;;;;;;;;;;12.90;99.90;;;;;;4993693;28;19933;-78
2022/06/08 02:55:36;;;;;;;;;;;12.80;99.90;;;;;;5009380;28;19935;-78
2022/06/08 02:58:08;;;;;;;;;;;12.80;99.90;;;;;;5012527;28;20015;-78
2022/06/08 03:00:34;;;;;;;;;;;12.90;99.90;;;;;;5010152;28;19933;-78
2022/06/08 03:03:02;;;;;;;;;;;12.90;99.90;;;;;;4997994;28;19935;-78
2022/06/08 03:05:34;;;;;;;;;;;12.90;99.90;;;;;;5012787;28;20519;-78
2022/06/08 03:08:09;;;;;;;;;;;12.90;99.90;;;;;;5009705;28;20409;-77
2022/06/08 03:10:35;;;;;;;;;;;13.00;99.90;;;;;;4995748;28;19929;-78
2022/06/08 03:13:21;;;;;;;;;;;12.90;99.90;;;;;;5015270;28;19940;-78
2022/06/08 03:15:54;;;;;;;;;;;13.00;99.90;;;;;;5014006;28;19929;-78
2022/06/08 03:18:20;;;;;;;;;;;13.00;99.90;;;;;;5013094;28;20746;-77
2022/06/08 03:20:45;;;;;;;;;;;13.00;99.90;;;;;;4992663;28;19928;-77
2022/06/08 03:23:11;;;;;;;;;;;13.00;99.90;;;;;;5011000;28;20700;-77
2022/06/08 03:25:37;;;;;;;;;;;13.10;99.90;;;;;;4995031;28;19933;-77
2022/06/08 03:28:03;;;;;;;;;;;13.10;99.90;;;;;;4997252;28;19932;-77
2022/06/08 03:30:29;;;;;;;;;;;13.10;99.90;;;;;;5001159;28;19928;-78
2022/06/08 03:32:55;;;;;;;;;;;13.00;99.90;;;;;;5007885;28;20307;-78
2022/06/08 03:35:20;;;;;;;;;;;13.00;99.90;;;;;;4986566;28;20211;-78
2022/06/08 03:37:46;;;;;;;;;;;13.00;99.90;;;;;;5010338;28;19997;-78
2022/06/08 03:40:12;;;;;;;;;;;13.10;99.90;;;;;;5016430;28;19932;-78
2022/06/08 03:42:38;;;;;;;;;;;13.20;99.90;;;;;;5012907;28;19925;-77
2022/06/08 03:45:04;;;;;;;;;;;13.10;99.90;;;;;;4997705;28;19951;-78
2022/06/08 03:47:32;;;;;;;;;;;13.10;99.90;;;;;;5014560;28;19929;-78
2022/06/08 03:50:00;;;;;;;;;;;13.30;99.90;;;;;;5014603;28;19930;-77
2022/06/08 03:52:28;;;;;;;;;;;13.40;99.90;;;;;;5009993;28;19929;-77
2022/06/08 03:54:56;;;;;;;;;;;13.40;99.90;;;;;;5016540;28;19936;-78
2022/06/08 03:57:22;;;;;;;;;;;13.40;99.90;;;;;;4999909;28;19929;-78
2022/06/08 03:59:48;;;;;;;;;;;13.40;99.90;;;;;;5016301;28;20044;-78
2022/06/08 04:02:14;;;;;;;;;;;13.50;99.90;;;;;;5014414;28;19936;-78
2022/06/08 04:04:40;;;;;;;;;;;13.50;99.90;;;;;;5013027;28;20333;-78
2022/06/08 04:07:16;;;;;;;;;;;13.70;99.90;;;;;;5014659;28;19929;-77
2022/06/08 04:09:41;;;;;;;;;;;13.70;99.90;;;;;;4988944;28;19929;-78
2022/06/08 04:12:08;;;;;;;;;;;13.70;99.90;;;;;;5001544;28;19979;-78
2022/06/08 04:14:33;;;;;;;;;;;13.80;99.90;;;;;;5019411;28;19958;-78
2022/06/08 04:17:01;;;;;;;;;;;13.90;99.90;;;;;;5000783;28;20555;-78
2022/06/08 04:19:27;;;;;;;;;;;13.90;99.90;;;;;;4999185;28;19936;-78
2022/06/08 04:21:52;;;;;;;;;;;14.00;99.90;;;;;;4997676;28;19929;-78
2022/06/08 04:24:18;;;;;;;;;;;14.00;99.90;;;;;;5010036;28;19935;-78
2022/06/08 04:26:44;;;;;;;;;;;14.10;99.90;;;;;;4995020;28;20412;-78
2022/06/08 04:29:10;;;;;;;;;;;14.10;99.90;;;;;;4997307;28;20011;-79
2022/06/08 04:31:35;;;;;;;;;;;14.20;99.90;;;;;;5017962;28;19979;-78
2022/06/08 04:34:02;;;;;;;;;;;14.20;99.90;;;;;;5021734;28;19940;-78
2022/06/08 04:36:28;;;;;;;;;;;14.30;99.90;;;;;;5027249;28;20400;-78
2022/06/08 04:38:54;;;;;;;;;;;14.30;99.90;;;;;;5005979;28;20002;-78
2022/06/08 04:41:20;;;;;;;;;;;14.30;99.90;;;;;;5021856;28;19990;-78
2022/06/08 04:43:46;;;;;;;;;;;14.40;99.90;;;;;;5015422;28;20052;-78
2022/06/08 04:46:15;;;;;;;;;;;14.40;99.90;;;;;;4993571;28;19990;-78
2022/06/08 04:48:44;;;;;;;;;;;14.40;99.90;;;;;;4992015;28;19933;-78
2022/06/08 04:51:10;;;;;;;;;;;14.40;99.90;;;;;;5010919;28;20271;-78
2022/06/08 04:53:37;;;;;;;;;;;14.50;99.90;;;;;;5008525;28;19936;-78
2022/06/08 04:56:03;;;;;;;;;;;14.60;99.90;;;;;;5011876;28;20687;-78
2022/06/08 04:58:29;;;;;;;;;;;14.80;99.90;;;;;;5006757;28;19929;-79
2022/06/08 05:00:54;;;;;;;;;;;14.80;99.90;;;;;;4996702;28;19980;-79
2022/06/08 05:03:20;;;;;;;;;;;14.90;99.90;;;;;;5011899;28;19939;-79
2022/06/08 05:05:46;;;;;;;;;;;14.80;99.90;;;;;;5009720;28;19962;-78
2022/06/08 05:08:11;;;;;;;;;;;14.80;99.90;;;;;;5008149;28;20636;-79
2022/06/08 05:10:38;;;;;;;;;;;15.00;99.90;;;;;;4992859;28;20291;-78
2022/06/08 05:13:05;;;;;;;;;;;15.10;99.90;;;;;;5001573;28;20465;-79
2022/06/08 05:15:33;;;;;;;;;;;15.20;99.90;;;;;;4991211;28;19968;-79
2022/06/08 05:18:00;;;;;;;;;;;15.30;99.90;;;;;;4988672;28;19928;-79
2022/06/08 05:20:26;;;;;;;;;;;15.60;99.90;;;;;;5019490;28;20043;-78
2022/06/08 05:22:51;;;;;;;;;;;15.60;99.90;;;;;;4986065;28;20019;-79
2022/06/08 05:25:29;;;;;;;;;;;15.70;99.90;;;;;;5019699;28;20032;-79
2022/06/08 05:27:55;;;;;;;;;;;15.60;99.90;;;;;;5020788;28;20023;-79
2022/06/08 05:30:20;;;;;;;;;;;15.70;99.90;;;;;;5000398;28;19936;-79
2022/06/08 05:32:46;;;;;;;;;;;15.90;99.90;;;;;;5017590;28;19929;-79
2022/06/08 05:35:12;;;;;;;;;;;16.00;99.90;;;;;;5015777;28;20452;-79
2022/06/08 05:37:38;;;;;;;;;;;16.00;99.90;;;;;;5017295;28;20390;-79
2022/06/08 05:40:04;;;;;;;;;;;16.10;99.90;;;;;;5003529;28;19936;-79
2022/06/08 05:42:30;;;;;;;;;;;16.10;99.90;;;;;;5014732;28;20040;-79
2022/06/08 05:44:57;;;;;;;;;;;16.20;99.90;;;;;;5001779;28;20031;-79
2022/06/08 05:47:23;;;;;;;;;;;16.20;99.90;;;;;;5019294;28;20274;-79
2022/06/08 05:49:48;;;;;;;;;;;16.30;99.90;;;;;;4999133;28;19929;-79
2022/06/08 05:52:14;;;;;;;;;;;16.50;99.90;;;;;;5015588;28;19936;-79
2022/06/08 05:54:40;;;;;;;;;;;16.60;99.90;;;;;;5016871;28;19955;-80
2022/06/08 05:57:05;;;;;;;;;;;16.70;99.90;;;;;;5012290;28;20404;-81
2022/06/08 05:59:31;;;;;;;;;;;16.90;99.90;;;;;;5030308;28;19937;-80
2022/06/08 06:01:57;;;;;;;;;;;17.30;99.90;;;;;;5031809;28;20511;-79
2022/06/08 06:04:23;;;;;;;;;;;17.40;99.90;;;;;;5030685;28;19928;-79
2022/06/08 06:06:48;;;;;;;;;;;17.70;99.90;;;;;;5030130;28;19975;-81
2022/06/08 06:09:15;;;;;;;;;;;18.20;99.90;;;;;;5030533;28;19933;-81
2022/06/08 06:11:41;;;;;;;;;;;18.40;99.90;;;;;;5031368;28;19933;-81
2022/06/08 06:14:08;;;;;;;;;;;18.60;99.90;;;;;;5013574;28;19947;-80
2022/06/08 06:16:33;;;;;;;;;;;18.70;99.90;;;;;;5030782;28;19933;-79
2022/06/08 06:18:59;;;;;;;;;;;18.70;99.90;;;;;;5031901;28;19947;-80
2022/06/08 06:21:25;;;;;;;;;;;19.10;99.90;;;;;;5031939;28;19935;-81
2022/06/08 06:23:54;;;;;;;;;;;19.30;99.90;;;;;;5013749;28;20454;-80
2022/06/08 06:26:20;;;;;;;;;;;19.80;99.90;;;;;;5031032;28;20408;-82
2022/06/08 06:28:46;;;;;;;;;;;19.70;99.90;;;;;;5029554;28;19928;-81
2022/06/08 06:31:17;;;;;;;;;;;19.80;99.90;;;;;;5014156;28;19932;-79
2022/06/08 06:33:42;;;;;;;;;;;19.60;99.90;;;;;;5010664;28;19995;-82
2022/06/08 06:36:08;;;;;;;;;;;20.10;99.90;;;;;;5013640;28;20402;-80
2022/06/08 06:38:34;;;;;;;;;;;20.30;99.90;;;;;;5011314;28;19935;-80
2022/06/08 06:40:59;;;;;;;;;;;20.40;99.90;;;;;;5032418;28;20070;-80
2022/06/08 06:43:25;;;;;;;;;;;20.40;99.90;;;;;;5030671;28;19955;-80
2022/06/08 06:45:50;;;;;;;;;;;20.30;99.90;;;;;;5029618;28;20619;-81
2022/06/08 06:48:16;;;;;;;;;;;20.40;99.90;;;;;;5029318;28;20282;-80
2022/06/08 06:50:42;;;;;;;;;;;20.20;99.90;;;;;;5029205;28;20746;-79
2022/06/08 06:53:09;;;;;;;;;;;20.10;99.90;;;;;;5028478;28;19980;-80
2022/06/08 06:55:34;;;;;;;;;;;20.00;99.90;;;;;;5029415;28;20629;-82
2022/06/08 06:58:00;;;;;;;;;;;20.00;99.90;;;;;;5031588;28;19933;-81
2022/06/08 07:00:26;;;;;;;;;;;20.00;99.90;;;;;;5014186;28;19979;-82
2022/06/08 07:02:51;;;;;;;;;;;20.10;99.90;;;;;;5000317;28;20391;-82
2022/06/08 07:05:21;;;;;;;;;;;20.00;99.90;;;;;;5015074;28;19940;-81
2022/06/08 07:07:47;;;;;;;;;;;20.00;99.90;;;;;;5032305;28;20451;-80
2022/06/08 07:10:13;;;;;;;;;;;20.20;99.90;;;;;;5019986;28;19931;-80
2022/06/08 07:12:38;;;;;;;;;;;20.30;99.90;;;;;;5035170;28;19929;-80
2022/06/08 07:15:04;;;;;;;;;;;20.30;99.90;;;;;;5036587;28;19929;-79
2022/06/08 07:17:30;;;;;;;;;;;20.80;99.90;;;;;;5034420;28;19929;-80
2022/06/08 07:19:55;;;;;;;;;;;20.90;99.90;;;;;;5035565;28;19932;-81
2022/06/08 07:22:21;;;;;;;;;;;21.20;99.90;;;;;;5035129;28;20055;-80
2022/06/08 07:24:47;;;;;;;;;;;21.10;99.90;;;;;;5035260;28;20414;-81
2022/06/08 07:27:12;;;;;;;;;;;21.60;99.90;;;;;;5034494;28;20286;-80
2022/06/08 07:29:38;;;;;;;;;;;21.50;99.90;;;;;;5015518;28;19986;-81
2022/06/08 07:32:04;;;;;;;;;;;21.70;99.90;;;;;;5016338;28;19929;-81
2022/06/08 07:34:30;;;;;;;;;;;21.60;99.90;;;;;;5021137;28;20649;-83
2022/06/08 07:36:56;;;;;;;;;;;21.40;99.90;;;;;;5034984;28;19987;-82
2022/06/08 07:39:22;;;;;;;;;;;21.50;99.90;;;;;;4999706;28;19955;-81
2022/06/08 07:41:49;;;;;;;;;;;21.50;99.90;;;;;;5034579;28;20263;-81
2022/06/08 07:44:16;;;;;;;;;;;21.50;99.90;;;;;;5016932;28;19960;-81
2022/06/08 07:46:41;;;;;;;;;;;21.80;99.90;;;;;;5014667;28;19929;-85
2022/06/08 07:51:53;;;;;;;;;;;21.50;99.90;;;;;;5032330;28;19929;-80
2022/06/08 07:54:20;;;;;;;;;;;21.50;99.90;;;;;;5031429;28;20496;-80
2022/06/08 07:56:46;;;;;;;;;;;21.40;99.90;;;;;;4999277;28;19933;-80
2022/06/08 07:59:11;;;;;;;;;;;21.50;99.90;;;;;;5002646;28;19960;-79
2022/06/08 08:01:37;;;;;;;;;;;21.10;99.90;;;;;;5032073;28;19925;-82
2022/06/08 08:04:03;;;;;;;;;;;21.40;99.90;;;;;;5027405;28;20376;-82
2022/06/08 08:06:28;;;;;;;;;;;21.50;99.90;;;;;;5008294;28;20299;-81
2022/06/08 08:08:55;;;;;;;;;;;21.90;99.90;;;;;;5024173;28;19929;-82
2022/06/08 08:11:20;;;;;;;;;;;22.10;99.90;;;;;;5023766;28;20040;-82
2022/06/08 08:13:46;;;;;;;;;;;22.00;99.90;;;;;;5014341;28;19954;-85
2022/06/08 08:16:11;;;;;;;;;;;21.80;99.90;;;;;;4984246;28;19929;-83
2022/06/08 08:18:37;;;;;;;;;;;21.60;99.90;;;;;;5032216;28;19928;-83
2022/06/08 08:21:03;;;;;;;;;;;21.70;99.90;;;;;;5034039;28;19928;-83
2022/06/08 08:23:28;;;;;;;;;;;21.60;99.90;;;;;;5030711;28;20002;-82
2022/06/08 08:25:54;;;;;;;;;;;21.50;99.90;;;;;;5034620;28;19924;-81
2022/06/08 08:28:20;;;;;;;;;;;21.70;99.90;;;;;;5014035;28;19928;-83
2022/06/08 08:30:45;;;;;;;;;;;21.90;99.90;;;;;;5015101;28;19928;-81
2022/06/08 08:33:13;;;;;;;;;;;21.80;99.90;;;;;;5015030;28;20221;-81
2022/06/08 08:35:39;;;;;;;;;;;21.80;99.90;;;;;;5033832;28;19929;-83
2022/06/08 08:38:04;;;;;;;;;;;21.60;99.90;;;;;;5032255;28;19975;-81
2022/06/08 08:40:30;;;;;;;;;;;22.10;99.90;;;;;;5014663;28;19928;-81
2022/06/08 08:42:56;;;;;;;;;;;22.40;99.90;;;;;;5017538;28;19939;-81
2022/06/08 08:45:22;;;;;;;;;;;22.80;99.90;;;;;;5033100;28;20047;-81
2022/06/08 08:47:51;;;;;;;;;;;23.10;99.90;;;;;;5032500;28;20373;-80
2022/06/08 08:50:20;;;;;;;;;;;23.00;99.90;;;;;;5016749;28;19936;-79
2022/06/08 08:52:57;;;;;;;;;;;22.60;99.90;;;;;;5003448;28;19929;-80
2022/06/08 08:55:27;;;;;;;;;;;22.60;99.90;;;;;;5017304;28;19925;-81
2022/06/08 08:57:57;;;;;;;;;;;22.40;99.90;;;;;;5015879;28;19925;-80
2022/06/08 09:00:30;;;;;;;;;;;22.20;99.90;;;;;;5032392;28;19925;-82
2022/06/08 09:03:18;;;;;;;;;;;22.10;99.90;;;;;;5033507;28;19967;-82
2022/06/08 09:05:44;;;;;;;;;;;22.20;99.90;;;;;;5015631;28;19990;-83
2022/06/08 09:08:11;;;;;;;;;;;22.20;99.90;;;;;;5015489;28;20683;-85
2022/06/08 09:10:37;;;;;;;;;;;22.20;99.90;;;;;;5004908;28;20011;-82
2022/06/08 09:13:03;;;;;;;;;;;22.30;99.90;;;;;;5033178;28;19929;-79
2022/06/08 09:15:47;;;;;;;;;;;22.40;99.90;;;;;;5030261;28;20461;-80
2022/06/08 09:18:19;;;;;;;;;;;22.20;99.90;;;;;;5014453;28;19982;-81
2022/06/08 09:20:45;;;;;;;;;;;22.10;99.90;;;;;;5032230;28;19952;-79
2022/06/08 09:23:28;;;;;;;;;;;22.10;99.90;;;;;;5015342;28;20025;-82
2022/06/08 09:26:07;;;;;;;;;;;22.20;99.90;;;;;;5031347;28;19929;-81
2022/06/08 09:28:33;;;;;;;;;;;22.60;99.90;;;;;;5031755;28;20412;-80
2022/06/08 09:30:59;;;;;;;;;;;22.60;99.90;;;;;;5031937;28;19929;-81
2022/06/08 09:33:24;;;;;;;;;;;22.30;99.90;;;;;;5031997;28;20057;-81
2022/06/08 09:35:53;;;;;;;;;;;22.10;99.90;;;;;;5014065;28;19959;-80
2022/06/08 09:38:20;;;;;;;;;;;22.00;99.90;;;;;;5013769;28;20755;-78
2022/06/08 09:40:46;;;;;;;;;;;21.80;99.90;;;;;;5013087;28;19953;-81
2022/06/08 09:43:18;;;;;;;;;;;21.80;99.90;;;;;;5032562;28;20429;-81
2022/06/08 09:46:04;;;;;;;;;;;21.70;99.90;;;;;;5014416;28;19929;-82
2022/06/08 09:51:38;;;;;;;;;;;21.50;99.90;;;;;;5032473;28;19929;-80
2022/06/08 09:54:04;;;;;;;;;;;21.50;99.90;;;;;;5032117;28;19979;-81
2022/06/08 09:56:40;;;;;;;;;;;21.60;99.90;;;;;;5029387;28;20054;-80
2022/06/08 09:59:05;;;;;;;;;;;21.90;99.90;;;;;;5030130;28;19979;-82
2022/06/08 10:01:40;;;;;;;;;;;21.90;99.90;;;;;;5012318;28;20023;-81
2022/06/08 10:04:20;;;;;;;;;;;22.10;99.90;;;;;;5030959;28;19933;-85
2022/06/08 10:06:55;;;;;;;;;;;22.50;99.90;;;;;;5031377;28;19936;-82
2022/06/08 10:09:30;;;;;;;;;;;22.50;99.90;;;;;;5013857;28;19933;-81
2022/06/08 10:11:56;;;;;;;;;;;22.90;99.90;;;;;;5000494;28;20569;-80
2022/06/08 10:14:42;;;;;;;;;;;23.10;99.90;;;;;;5014615;28;19933;-81
2022/06/08 10:17:10;;;;;;;;;;;22.70;99.90;;;;;;5004027;28;19979;-81
2022/06/08 10:19:55;;;;;;;;;;;22.90;99.90;;;;;;5004805;28;19929;-81
2022/06/08 10:22:23;;;;;;;;;;;23.10;99.90;;;;;;5009712;28;20429;-81
2022/06/08 10:24:50;;;;;;;;;;;23.50;99.90;;;;;;5023513;28;20349;-81
2022/06/08 10:27:30;;;;;;;;;;;23.80;99.90;;;;;;5030749;28;20374;-82
2022/06/08 10:30:18;;;;;;;;;;;24.00;99.90;;;;;;5013635;28;19933;-83
2022/06/08 10:32:44;;;;;;;;;;;24.10;99.90;;;;;;5030437;28;19954;-81
2022/06/08 10:35:36;;;;;;;;;;;24.10;99.90;;;;;;5031494;28;19950;-81
2022/06/08 10:38:03;;;;;;;;;;;24.20;99.90;;;;;;5006162;28;20089;-80
2022/06/08 10:40:46;;;;;;;;;;;24.40;99.90;;;;;;5031664;28;20298;-79
2022/06/08 10:43:17;;;;;;;;;;;24.00;99.90;;;;;;5019432;28;19963;-81
2022/06/08 10:45:44;;;;;;;;;;;24.30;99.90;;;;;;4983859;28;20453;-83
2022/06/08 10:48:13;;;;;;;;;;;24.00;99.90;;;;;;5020743;28;19952;-82
2022/06/08 10:50:46;;;;;;;;;;;23.90;99.90;;;;;;5014473;28;19980;-80
2022/06/08 10:56:23;;;;;;;;;;;25.00;99.90;;;;;;5028570;28;19987;-84
2022/06/08 10:59:09;;;;;;;;;;;25.00;99.90;;;;;;5030696;28;20412;-79
2022/06/08 11:01:38;;;;;;;;;;;24.40;99.90;;;;;;5016771;28;19933;-81
2022/06/08 11:04:07;;;;;;;;;;;25.00;99.90;;;;;;5030285;28;19935;-81
2022/06/08 11:06:50;;;;;;;;;;;24.50;99.90;;;;;;5029064;28;19940;-82
2022/06/08 11:09:31;;;;;;;;;;;23.90;99.90;;;;;;5028417;28;19940;-81
2022/06/08 11:12:05;;;;;;;;;;;23.80;99.90;;;;;;5031702;28;19935;-80
2022/06/08 11:14:42;;;;;;;;;;;24.60;99.90;;;;;;5030178;28;19928;-81
2022/06/08 11:17:17;;;;;;;;;;;25.10;99.90;;;;;;5030680;28;19936;-80
2022/06/08 11:19:43;;;;;;;;;;;25.30;99.90;;;;;;5011405;28;19933;-80
2022/06/08 11:22:11;;;;;;;;;;;24.80;99.90;;;;;;5030625;28;20676;-79
2022/06/08 11:24:39;;;;;;;;;;;24.90;99.90;;;;;;5030058;28;20397;-79
2022/06/08 11:27:14;;;;;;;;;;;24.20;99.90;;;;;;5012551;28;19941;-76
2022/06/08 11:29:45;;;;;;;;;;;24.40;99.90;;;;;;5029549;28;20048;-80
2022/06/08 11:32:28;;;;;;;;;;;24.50;99.90;;;;;;5027482;28;19937;-81
2022/06/08 11:34:54;;;;;;;;;;;24.40;99.90;;;;;;5028341;28;19928;-78
2022/06/08 11:37:38;;;;;;;;;;;23.70;99.90;;;;;;5027669;28;19935;-82
2022/06/08 11:40:04;;;;;;;;;;;23.60;99.90;;;;;;5016739;28;19936;-79
2022/06/08 11:42:29;;;;;;;;;;;23.30;99.90;;;;;;5011627;28;20389;-80
2022/06/08 11:45:04;;;;;;;;;;;23.00;99.90;;;;;;5030432;28;19926;-81
2022/06/08 11:47:49;;;;;;;;;;;22.60;99.90;;;;;;4995271;28;19928;-80
2022/06/08 11:50:16;;;;;;;;;;;22.80;99.90;;;;;;5035041;28;19974;-79
2022/06/08 11:52:43;;;;;;;;;;;22.40;99.90;;;;;;5032358;28;19936;-80
2022/06/08 11:55:15;;;;;;;;;;;21.70;99.90;;;;;;5033610;28;19963;-80
2022/06/08 11:57:47;;;;;;;;;;;21.10;99.90;;;;;;5016314;28;19932;-81
2022/06/08 12:00:15;;;;;;;;;;;20.70;99.90;;;;;;5015122;28;19936;-80
2022/06/08 12:02:41;;;;;;;;;;;20.40;99.90;;;;;;5015126;28;19929;-83
2022/06/08 12:05:07;;;;;;;;;;;20.20;99.90;;;;;;5001918;28;19936;-82
2022/06/08 12:07:51;;;;;;;;;;;20.00;99.90;;;;;;5010610;28;19929;-81
2022/06/08 12:10:20;;;;;;;;;;;19.60;99.90;;;;;;5030601;28;19944;-81
2022/06/08 12:12:46;;;;;;;;;;;19.30;99.90;;;;;;5032171;28;19929;-80
2022/06/08 12:15:26;;;;;;;;;;;19.50;99.90;;;;;;5005780;28;19928;-81
2022/06/08 12:17:52;;;;;;;;;;;19.40;99.90;;;;;;5032998;28;19995;-81
2022/06/08 12:20:38;;;;;;;;;;;19.50;99.90;;;;;;5017087;28;20027;-78
2022/06/08 12:23:03;;;;;;;;;;;19.40;99.90;;;;;;5030976;28;19928;-81
2022/06/08 12:25:30;;;;;;;;;;;19.30;99.90;;;;;;5017473;28;20337;-82
2022/06/08 12:28:11;;;;;;;;;;;19.50;99.90;;;;;;5016770;28;20018;-82
2022/06/08 12:30:52;;;;;;;;;;;19.50;99.90;;;;;;5000617;28;19928;-80
2022/06/08 12:33:18;;;;;;;;;;;19.60;99.90;;;;;;5016806;28;20656;-80
2022/06/08 12:36:02;;;;;;;;;;;19.80;99.90;;;;;;5014788;28;19979;-80
2022/06/08 12:38:31;;;;;;;;;;;19.80;99.90;;;;;;5014799;28;19941;-81
2022/06/08 12:41:08;;;;;;;;;;;19.90;99.90;;;;;;5013689;28;20718;-79
2022/06/08 12:43:35;;;;;;;;;;;20.00;99.90;;;;;;5013687;28;19952;-80
2022/06/08 12:46:04;;;;;;;;;;;20.20;99.90;;;;;;5015044;28;19929;-80
2022/06/08 12:48:36;;;;;;;;;;;20.30;99.90;;;;;;5000063;28;20409;-80
2022/06/08 12:51:20;;;;;;;;;;;20.30;99.90;;;;;;5015318;28;19936;-81
2022/06/08 12:53:45;;;;;;;;;;;20.50;99.90;;;;;;5030010;28;20023;-80
2022/06/08 12:56:11;;;;;;;;;;;20.60;99.90;;;;;;5030989;28;20012;-80
2022/06/08 12:58:36;;;;;;;;;;;20.80;99.90;;;;;;5013183;28;20547;-80
2022/06/08 13:01:03;;;;;;;;;;;20.90;99.90;;;;;;5014063;28;19931;-80
2022/06/08 13:03:28;;;;;;;;;;;20.80;99.90;;;;;;5013204;28;19994;-79
2022/06/08 13:05:55;;;;;;;;;;;20.90;99.90;;;;;;5031616;28;19962;-78
2022/06/08 13:08:25;;;;;;;;;;;21.00;99.90;;;;;;5030255;28;19931;-81
2022/06/08 13:10:52;;;;;;;;;;;21.20;99.90;;;;;;5029926;28;20850;-79
2022/06/08 13:13:20;;;;;;;;;;;21.10;99.90;;;;;;4986786;28;19928;-80
2022/06/08 13:15:46;;;;;;;;;;;21.00;99.90;;;;;;5011617;28;19929;-80
2022/06/08 13:18:16;;;;;;;;;;;20.80;99.90;;;;;;5014090;28;20286;-79
2022/06/08 13:20:41;;;;;;;;;;;20.80;99.90;;;;;;5003157;28;19933;-79
2022/06/08 13:23:08;;;;;;;;;;;20.50;99.90;;;;;;5014586;28;19936;-78
2022/06/08 13:25:36;;;;;;;;;;;20.40;99.90;;;;;;4986704;28;19924;-78
2022/06/08 13:28:09;;;;;;;;;;;20.40;99.90;;;;;;4998156;28;19979;-78
2022/06/08 13:30:37;;;;;;;;;;;20.40;99.90;;;;;;4996910;28;20717;-78
2022/06/08 13:33:03;;;;;;;;;;;20.40;99.90;;;;;;4997206;28;20154;-78
2022/06/08 13:35:29;;;;;;;;;;;20.30;99.90;;;;;;5003507;28;20407;-77
2022/06/08 13:37:56;;;;;;;;;;;20.20;99.90;;;;;;5004999;28;20803;-79
2022/06/08 13:40:23;;;;;;;;;;;20.10;99.90;;;;;;4986083;28;19968;-78
2022/06/08 13:42:49;;;;;;;;;;;19.40;99.90;;;;;;5001712;28;20025;-79
2022/06/08 13:45:18;;;;;;;;;;;19.20;99.90;;;;;;5001277;28;19929;-79
2022/06/08 13:47:45;;;;;;;;;;;18.90;99.90;;;;;;5001246;28;20401;-77
2022/06/08 13:50:14;;;;;;;;;;;18.70;99.90;;;;;;4990233;28;20745;-82
2022/06/08 13:52:41;;;;;;;;;;;18.60;99.90;;;;;;4987679;28;19928;-80
2022/06/08 13:55:11;;;;;;;;;;;18.60;99.90;;;;;;4999823;28;19929;-80
2022/06/08 13:57:37;;;;;;;;;;;18.50;99.90;;;;;;4983985;28;20442;-80
2022/06/08 14:00:05;;;;;;;;;;;18.60;99.90;;;;;;4993561;28;19933;-81
2022/06/08 14:02:40;;;;;;;;;;;18.70;99.90;;;;;;5002572;28;19933;-81
2022/06/08 14:05:06;;;;;;;;;;;18.70;99.90;;;;;;5005782;28;19935;-80
2022/06/08 14:13:22;;;;;;;;;;;18.60;99.90;;;;;;4904600;28;20716;-81
2022/06/08 14:15:49;;;;;;;;;;;18.70;99.90;;;;;;4966934;28;19935;-84
2022/06/08 14:18:20;;;;;;;;;;;18.60;99.90;;;;;;4985521;28;20414;-80
2022/06/08 14:20:46;;;;;;;;;;;18.70;99.90;;;;;;4998530;28;20129;-80
2022/06/08 14:23:13;;;;;;;;;;;18.80;99.90;;;;;;4997075;28;19932;-80
2022/06/08 14:25:39;;;;;;;;;;;18.90;99.90;;;;;;4997344;28;19925;-82
2022/06/08 14:28:05;;;;;;;;;;;18.80;99.90;;;;;;4999025;28;19987;-81
2022/06/08 14:30:31;;;;;;;;;;;18.80;99.90;;;;;;4986643;28;20710;-79
2022/06/08 14:32:59;;;;;;;;;;;18.80;99.90;;;;;;4980478;28;19933;-81
2022/06/08 14:35:26;;;;;;;;;;;18.90;99.90;;;;;;4985069;28;20039;-79
2022/06/08 14:37:53;;;;;;;;;;;18.90;99.90;;;;;;4999296;28;19935;-79
2022/06/08 14:40:24;;;;;;;;;;;18.80;99.90;;;;;;4983545;28;20363;-82
2022/06/08 14:42:50;;;;;;;;;;;18.80;99.90;;;;;;5001365;28;20055;-79
2022/06/08 14:45:15;;;;;;;;;;;18.80;99.90;;;;;;5000930;28;20645;-79